Terminal Aerodrome Forecast
Issued by NWS Wilmington, OH

Current Version | Previous Version | Graphics & Text | Print | Product List | Glossary On
Versions: 1 2 3 4 5 6 7 8 9 10 11 12 13 14 15 16 17 18 19 20 21 22 23 24 25 26 27 28 29 30 31
000
FTUS41 KILN 020500
TAFDAY
TAF
KDAY 020540Z 0206/0306 03006KT P6SM SCT015 BKN090
      TEMPO 0208/0212 5SM BR BKN015
     FM021400 04010KT P6SM SCT025 BKN100
     FM021600 05010KT P6SM SCT040
     FM030000 04007KT P6SM SCT100=

USA.gov is the U.S. government's official web portal to all federal, state and local government web resources and services.